This is the latest recevied weather packets stored in our database for station/object K7AEL. If no packets are shown the sender has not sent any weather packets the latest 1 day(s).
| Time | Temp. | Humidity | Pressure | Rain* | Wind** | Luminosity | Snow |
|---|---|---|---|---|---|---|---|
| 1778002881 | 20° C | 61% | 1013.8 hPa | 0 mm | 0.89 m/s, 271° | 178 W/m² | - |
| 1778002578 | 19.44° C | 62% | 1014 hPa | 0 mm | 0.45 m/s, 194° | 201 W/m² | - |
| 1778002274 | 19.44° C | 61% | 1014 hPa | 0 mm | 0 m/s | 117 W/m² | - |
| 1778001972 | 19.44° C | 62% | 1013.9 hPa | 0 mm | 0.89 m/s, 254° | 127 W/m² | - |
| 1778001669 | 20° C | 61% | 1014 hPa | 0 mm | 0.89 m/s, 179° | 177 W/m² | - |
| 1778001363 | 20° C | 60% | 1013.9 hPa | 0 mm | 1.79 m/s, 11° | 605 W/m² | - |
| 1778001061 | 20° C | 60% | 1013.9 hPa | 0 mm | 0.45 m/s, 244° | 158 W/m² | - |
| 1778000757 | 20° C | 59% | 1013.9 hPa | 0 mm | 0.45 m/s, 195° | 820 W/m² | - |
| 1778000454 | 20° C | 60% | 1013.9 hPa | 0 mm | 0.45 m/s, 222° | 214 W/m² | - |
| 1778000149 | 20° C | 59% | 1013.8 hPa | 0 mm | 1.34 m/s, 223° | 666 W/m² | - |
| 1777999845 | 20° C | 59% | 1014 hPa | 0 mm | 1.34 m/s, 269° | 195 W/m² | - |
| 1777999541 | 19.44° C | 60% | 1013.9 hPa | 0 mm | 0.45 m/s, 195° | 859 W/m² | - |
| 1777999239 | 20° C | 60% | 1014.1 hPa | 0 mm | 0.89 m/s, 265° | 249 W/m² | - |
| 1777998937 | 19.44° C | 62% | 1013.9 hPa | 0 mm | 0 m/s | 590 W/m² | - |
| 1777998633 | 19.44° C | 61% | 1013.8 hPa | 0 mm | 0.89 m/s, 238° | 351 W/m² | - |
| 1777998327 | 19.44° C | 62% | 1013.9 hPa | 0 mm | 0.89 m/s, 192° | 255 W/m² | - |
| 1777998024 | 18.89° C | 65% | 1013.9 hPa | 0 mm | 0.45 m/s, 178° | 366 W/m² | - |
| 1777997720 | 18.33° C | 67% | 1013.9 hPa | 0 mm | 0.45 m/s, 187° | 273 W/m² | - |
| 1777997417 | 18.33° C | 68% | 1014.1 hPa | 0 mm | 0.45 m/s, 222° | 226 W/m² | - |
| 1777997115 | 17.78° C | 69% | 1014 hPa | 0 mm | 0.89 m/s, 262° | 175 W/m² | - |
| 1777996813 | 17.78° C | 70% | 1013.8 hPa | 0 mm | 0.45 m/s, 219° | 111 W/m² | - |
| 1777996508 | 17.78° C | 71% | 1013.9 hPa | 0 mm | 0 m/s | 106 W/m² | - |
| 1777996205 | 17.78° C | 71% | 1014 hPa | 0 mm | 0 m/s | 89 W/m² | - |
| 1777995896 | 17.78° C | 73% | 1014 hPa | 0 mm | 0 m/s | 92 W/m² | - |
| 1777995592 | 17.78° C | 74% | 1013.8 hPa | 0 mm | 0 m/s | 81 W/m² | - |
* Rain latest hour (hover to see other rain measurements)
** Current wind speed in m/s (hover to see current wind gust speed)